Crandall, South Dakota
Current Conditions -  °F | °C
As of 4:53 PM on Saturday 22 Nov 2014 (Local Time) from KABR Reporting Station
Clear Clear  
Wind Chill: 28°   Ceiling: Unl
Heat Index: 36°   Visibility: 10mi
Dew Point: 31°   Wind: 10mph
Humidity: 82%   Direction: 180°S
Pressure: 29.39"   Gusts: NA
Location:  45.1644°N, 98.0134°W
Report Text: KABR 222253Z AUTO 18009KT 10SM CLR 02/M01 A2939 RMK AO2 SLP968 T00221006
Loading
Personal Weather Stations






























Interactive Weather Map New forecast layout! Learn more

10-Day Weather Forecast

Advertisements
Track Severe Weather on mobile